sensor_id;sensor_type;location;lat;lon;timestamp;temperature;humidity
80258;DHT22;69565;37.974;23.708;2023-07-28T00:02:10;30.70;30.00
80258;DHT22;69565;37.974;23.708;2023-07-28T00:04:36;30.70;30.00
80258;DHT22;69565;37.974;23.708;2023-07-28T00:07:03;30.70;30.10
80258;DHT22;69565;37.974;23.708;2023-07-28T00:09:29;30.70;30.10
80258;DHT22;69565;37.974;23.708;2023-07-28T00:11:59;30.70;30.20
80258;DHT22;69565;37.974;23.708;2023-07-28T00:14:25;30.60;30.00
80258;DHT22;69565;37.974;23.708;2023-07-28T00:16:52;30.60;30.00
80258;DHT22;69565;37.974;23.708;2023-07-28T00:19:18;30.60;29.90
80258;DHT22;69565;37.974;23.708;2023-07-28T00:21:44;30.70;29.70
80258;DHT22;69565;37.974;23.708;2023-07-28T00:24:10;30.60;29.30
80258;DHT22;69565;37.974;23.708;2023-07-28T00:26:36;30.60;29.00
80258;DHT22;69565;37.974;23.708;2023-07-28T00:29:01;30.70;28.70
80258;DHT22;69565;37.974;23.708;2023-07-28T00:31:30;30.70;28.60
80258;DHT22;69565;37.974;23.708;2023-07-28T00:33:56;30.70;28.20
80258;DHT22;69565;37.974;23.708;2023-07-28T00:36:21;30.60;27.90
80258;DHT22;69565;37.974;23.708;2023-07-28T00:38:47;30.60;27.80
80258;DHT22;69565;37.974;23.708;2023-07-28T00:41:13;30.60;27.70
80258;DHT22;69565;37.974;23.708;2023-07-28T00:43:39;30.60;27.50
80258;DHT22;69565;37.974;23.708;2023-07-28T00:46:04;30.70;27.40
80258;DHT22;69565;37.974;23.708;2023-07-28T00:48:30;30.60;27.10
80258;DHT22;69565;37.974;23.708;2023-07-28T00:50:56;30.70;27.10
80258;DHT22;69565;37.974;23.708;2023-07-28T00:53:23;30.70;27.00
80258;DHT22;69565;37.974;23.708;2023-07-28T00:55:49;30.60;26.90
80258;DHT22;69565;37.974;23.708;2023-07-28T00:58:16;30.60;26.90
80258;DHT22;69565;37.974;23.708;2023-07-28T01:00:42;30.60;27.00
80258;DHT22;69565;37.974;23.708;2023-07-28T01:03:07;30.60;27.00
80258;DHT22;69565;37.974;23.708;2023-07-28T01:08:37;30.60;27.20
80258;DHT22;69565;37.974;23.708;2023-07-28T01:11:04;30.60;27.50
80258;DHT22;69565;37.974;23.708;2023-07-28T01:13:30;30.60;27.70
80258;DHT22;69565;37.974;23.708;2023-07-28T01:15:56;30.60;28.00
80258;DHT22;69565;37.974;23.708;2023-07-28T01:18:23;30.60;28.10
80258;DHT22;69565;37.974;23.708;2023-07-28T01:20:50;30.60;29.10
80258;DHT22;69565;37.974;23.708;2023-07-28T01:23:37;30.60;28.40
80258;DHT22;69565;37.974;23.708;2023-07-28T01:26:06;30.60;28.50
80258;DHT22;69565;37.974;23.708;2023-07-28T01:28:34;30.60;28.60
80258;DHT22;69565;37.974;23.708;2023-07-28T01:31:05;30.60;28.70
80258;DHT22;69565;37.974;23.708;2023-07-28T01:33:31;30.60;28.80
80258;DHT22;69565;37.974;23.708;2023-07-28T01:35:57;30.60;28.80
80258;DHT22;69565;37.974;23.708;2023-07-28T01:38:24;30.60;28.90
80258;DHT22;69565;37.974;23.708;2023-07-28T01:40:50;30.60;28.90
80258;DHT22;69565;37.974;23.708;2023-07-28T01:43:15;30.60;29.00
80258;DHT22;69565;37.974;23.708;2023-07-28T01:45:41;30.60;29.00
80258;DHT22;69565;37.974;23.708;2023-07-28T01:48:07;30.60;29.00
80258;DHT22;69565;37.974;23.708;2023-07-28T01:50:35;30.50;29.60
80258;DHT22;69565;37.974;23.708;2023-07-28T01:53:01;30.50;29.10
80258;DHT22;69565;37.974;23.708;2023-07-28T01:55:27;30.50;29.10
80258;DHT22;69565;37.974;23.708;2023-07-28T01:57:58;30.50;29.20
80258;DHT22;69565;37.974;23.708;2023-07-28T02:00:24;30.40;29.30
80258;DHT22;69565;37.974;23.708;2023-07-28T02:02:50;30.40;29.30
80258;DHT22;69565;37.974;23.708;2023-07-28T02:05:16;30.40;29.50
80258;DHT22;69565;37.974;23.708;2023-07-28T02:07:42;30.40;29.50
80258;DHT22;69565;37.974;23.708;2023-07-28T02:10:08;30.50;29.70
80258;DHT22;69565;37.974;23.708;2023-07-28T02:12:36;30.50;29.80
80258;DHT22;69565;37.974;23.708;2023-07-28T02:15:01;30.50;30.00
80258;DHT22;69565;37.974;23.708;2023-07-28T02:17:27;30.50;30.10
80258;DHT22;69565;37.974;23.708;2023-07-28T02:19:53;30.40;30.30
80258;DHT22;69565;37.974;23.708;2023-07-28T02:22:19;30.40;30.40
80258;DHT22;69565;37.974;23.708;2023-07-28T02:24:44;30.40;30.70
80258;DHT22;69565;37.974;23.708;2023-07-28T02:27:10;30.40;30.90
80258;DHT22;69565;37.974;23.708;2023-07-28T02:29:36;30.40;31.10
80258;DHT22;69565;37.974;23.708;2023-07-28T02:32:01;30.40;31.40
80258;DHT22;69565;37.974;23.708;2023-07-28T02:34:27;30.40;31.70
80258;DHT22;69565;37.974;23.708;2023-07-28T02:36:53;30.30;32.00
80258;DHT22;69565;37.974;23.708;2023-07-28T02:39:19;30.30;32.30
80258;DHT22;69565;37.974;23.708;2023-07-28T02:41:46;30.30;32.80
80258;DHT22;69565;37.974;23.708;2023-07-28T02:44:11;30.30;33.20
80258;DHT22;69565;37.974;23.708;2023-07-28T02:46:37;30.30;33.60
80258;DHT22;69565;37.974;23.708;2023-07-28T02:49:03;30.30;33.90
80258;DHT22;69565;37.974;23.708;2023-07-28T02:51:30;30.30;34.40
80258;DHT22;69565;37.974;23.708;2023-07-28T02:53:56;30.30;34.80
80258;DHT22;69565;37.974;23.708;2023-07-28T02:56:21;30.30;35.10
80258;DHT22;69565;37.974;23.708;2023-07-28T02:58:48;30.30;35.50
80258;DHT22;69565;37.974;23.708;2023-07-28T03:01:14;30.30;35.80
80258;DHT22;69565;37.974;23.708;2023-07-28T03:03:40;30.20;36.00
80258;DHT22;69565;37.974;23.708;2023-07-28T03:06:05;30.30;36.50
80258;DHT22;69565;37.974;23.708;2023-07-28T03:08:31;30.20;36.70
80258;DHT22;69565;37.974;23.708;2023-07-28T03:10:58;30.20;36.90
80258;DHT22;69565;37.974;23.708;2023-07-28T03:13:24;30.20;37.20
80258;DHT22;69565;37.974;23.708;2023-07-28T03:15:50;30.20;37.50
80258;DHT22;69565;37.974;23.708;2023-07-28T03:18:15;30.20;37.70
80258;DHT22;69565;37.974;23.708;2023-07-28T03:20:41;30.20;37.90
80258;DHT22;69565;37.974;23.708;2023-07-28T03:23:07;30.20;38.10
80258;DHT22;69565;37.974;23.708;2023-07-28T03:25:33;30.10;38.20
80258;DHT22;69565;37.974;23.708;2023-07-28T03:27:58;30.10;38.40
80258;DHT22;69565;37.974;23.708;2023-07-28T03:30:24;30.10;38.50
80258;DHT22;69565;37.974;23.708;2023-07-28T03:32:50;30.10;38.60
80258;DHT22;69565;37.974;23.708;2023-07-28T03:35:15;30.10;38.60
80258;DHT22;69565;37.974;23.708;2023-07-28T03:37:41;30.10;38.40
80258;DHT22;69565;37.974;23.708;2023-07-28T03:40:07;30.10;38.40
80258;DHT22;69565;37.974;23.708;2023-07-28T03:42:33;30.10;38.30
80258;DHT22;69565;37.974;23.708;2023-07-28T03:44:59;30.10;38.20
80258;DHT22;69565;37.974;23.708;2023-07-28T03:47:25;30.10;38.20
80258;DHT22;69565;37.974;23.708;2023-07-28T03:49:50;30.10;38.10
80258;DHT22;69565;37.974;23.708;2023-07-28T03:52:16;30.10;38.00
80258;DHT22;69565;37.974;23.708;2023-07-28T03:54:42;30.10;37.90
80258;DHT22;69565;37.974;23.708;2023-07-28T03:57:09;30.00;37.80
80258;DHT22;69565;37.974;23.708;2023-07-28T03:59:35;30.10;37.80
80258;DHT22;69565;37.974;23.708;2023-07-28T04:02:01;30.10;37.50
80258;DHT22;69565;37.974;23.708;2023-07-28T04:04:27;30.20;37.40
80258;DHT22;69565;37.974;23.708;2023-07-28T04:06:52;30.20;37.20
80258;DHT22;69565;37.974;23.708;2023-07-28T04:09:19;30.20;37.00
80258;DHT22;69565;37.974;23.708;2023-07-28T04:11:45;30.30;36.90
80258;DHT22;69565;37.974;23.708;2023-07-28T04:14:11;30.30;36.70
80258;DHT22;69565;37.974;23.708;2023-07-28T04:16:37;30.30;36.60
80258;DHT22;69565;37.974;23.708;2023-07-28T04:19:03;30.30;36.30
80258;DHT22;69565;37.974;23.708;2023-07-28T04:21:29;30.40;36.20
80258;DHT22;69565;37.974;23.708;2023-07-28T04:23:54;30.50;36.00
80258;DHT22;69565;37.974;23.708;2023-07-28T04:26:20;30.50;35.80
80258;DHT22;69565;37.974;23.708;2023-07-28T04:28:46;30.60;35.70
80258;DHT22;69565;37.974;23.708;2023-07-28T04:31:12;30.60;35.50
80258;DHT22;69565;37.974;23.708;2023-07-28T04:33:41;30.70;35.00
80258;DHT22;69565;37.974;23.708;2023-07-28T04:36:06;30.80;34.70
80258;DHT22;69565;37.974;23.708;2023-07-28T04:38:32;30.80;34.60
80258;DHT22;69565;37.974;23.708;2023-07-28T04:40:58;30.70;34.60
80258;DHT22;69565;37.974;23.708;2023-07-28T04:43:23;30.70;34.50
80258;DHT22;69565;37.974;23.708;2023-07-28T04:45:49;30.70;34.40
80258;DHT22;69565;37.974;23.708;2023-07-28T04:48:15;30.70;34.40
80258;DHT22;69565;37.974;23.708;2023-07-28T04:50:40;30.70;34.60
80258;DHT22;69565;37.974;23.708;2023-07-28T04:53:06;30.70;34.50
80258;DHT22;69565;37.974;23.708;2023-07-28T04:55:32;30.70;34.70
80258;DHT22;69565;37.974;23.708;2023-07-28T04:57:58;30.80;34.70
80258;DHT22;69565;37.974;23.708;2023-07-28T05:00:23;30.80;34.50
80258;DHT22;69565;37.974;23.708;2023-07-28T05:02:49;30.70;34.50
80258;DHT22;69565;37.974;23.708;2023-07-28T05:05:15;30.70;34.50
80258;DHT22;69565;37.974;23.708;2023-07-28T05:07:41;30.70;34.50
80258;DHT22;69565;37.974;23.708;2023-07-28T05:10:07;30.70;34.20
80258;DHT22;69565;37.974;23.708;2023-07-28T05:12:33;30.80;33.70
80258;DHT22;69565;37.974;23.708;2023-07-28T05:14:59;30.80;33.60
80258;DHT22;69565;37.974;23.708;2023-07-28T05:17:25;30.80;33.40
80258;DHT22;69565;37.974;23.708;2023-07-28T05:19:51;30.80;33.30
80258;DHT22;69565;37.974;23.708;2023-07-28T05:22:17;30.90;33.30
80258;DHT22;69565;37.974;23.708;2023-07-28T05:24:43;30.90;33.30
80258;DHT22;69565;37.974;23.708;2023-07-28T05:27:10;30.90;33.10
80258;DHT22;69565;37.974;23.708;2023-07-28T05:29:35;30.90;32.90
80258;DHT22;69565;37.974;23.708;2023-07-28T05:32:01;30.90;32.70
80258;DHT22;69565;37.974;23.708;2023-07-28T05:34:27;30.90;32.50
80258;DHT22;69565;37.974;23.708;2023-07-28T05:36:53;30.90;32.30
80258;DHT22;69565;37.974;23.708;2023-07-28T05:39:19;31.00;32.30
80258;DHT22;69565;37.974;23.708;2023-07-28T05:41:45;30.90;32.20
80258;DHT22;69565;37.974;23.708;2023-07-28T05:44:11;30.90;32.10
80258;DHT22;69565;37.974;23.708;2023-07-28T05:46:36;31.00;31.90
80258;DHT22;69565;37.974;23.708;2023-07-28T05:49:02;31.00;31.90
80258;DHT22;69565;37.974;23.708;2023-07-28T05:51:28;31.00;32.00
80258;DHT22;69565;37.974;23.708;2023-07-28T05:53:54;31.10;31.80
80258;DHT22;69565;37.974;23.708;2023-07-28T05:56:20;31.10;31.50
80258;DHT22;69565;37.974;23.708;2023-07-28T05:58:47;31.10;32.30
80258;DHT22;69565;37.974;23.708;2023-07-28T06:01:13;31.20;30.70
80258;DHT22;69565;37.974;23.708;2023-07-28T06:03:39;31.20;30.50
80258;DHT22;69565;37.974;23.708;2023-07-28T06:06:05;31.20;30.50
80258;DHT22;69565;37.974;23.708;2023-07-28T06:08:30;31.20;30.30
80258;DHT22;69565;37.974;23.708;2023-07-28T06:10:56;31.20;30.10
80258;DHT22;69565;37.974;23.708;2023-07-28T06:13:22;31.20;29.90
80258;DHT22;69565;37.974;23.708;2023-07-28T06:15:47;31.30;29.90
80258;DHT22;69565;37.974;23.708;2023-07-28T06:18:13;31.30;30.00
80258;DHT22;69565;37.974;23.708;2023-07-28T06:20:43;31.30;29.70
80258;DHT22;69565;37.974;23.708;2023-07-28T06:23:09;31.20;29.70
80258;DHT22;69565;37.974;23.708;2023-07-28T06:25:35;31.20;29.80
80258;DHT22;69565;37.974;23.708;2023-07-28T06:28:03;31.20;29.90
80258;DHT22;69565;37.974;23.708;2023-07-28T06:30:29;31.30;29.80
80258;DHT22;69565;37.974;23.708;2023-07-28T06:32:56;31.40;29.70
80258;DHT22;69565;37.974;23.708;2023-07-28T06:35:21;31.40;29.50
80258;DHT22;69565;37.974;23.708;2023-07-28T06:37:48;31.40;29.40
80258;DHT22;69565;37.974;23.708;2023-07-28T06:40:13;31.50;29.50
80258;DHT22;69565;37.974;23.708;2023-07-28T06:42:39;31.50;29.30
80258;DHT22;69565;37.974;23.708;2023-07-28T06:45:06;31.50;29.20
80258;DHT22;69565;37.974;23.708;2023-07-28T06:47:31;31.50;29.00
80258;DHT22;69565;37.974;23.708;2023-07-28T06:49:57;31.50;29.20
80258;DHT22;69565;37.974;23.708;2023-07-28T06:52:23;31.50;29.20
80258;DHT22;69565;37.974;23.708;2023-07-28T06:54:49;31.50;29.10
80258;DHT22;69565;37.974;23.708;2023-07-28T06:57:15;31.50;29.10
80258;DHT22;69565;37.974;23.708;2023-07-28T06:59:41;31.50;29.20
80258;DHT22;69565;37.974;23.708;2023-07-28T07:02:07;31.50;29.10
80258;DHT22;69565;37.974;23.708;2023-07-28T07:04:34;31.60;28.50
80258;DHT22;69565;37.974;23.708;2023-07-28T07:07:00;31.70;28.40
80258;DHT22;69565;37.974;23.708;2023-07-28T07:09:25;31.70;28.60
80258;DHT22;69565;37.974;23.708;2023-07-28T07:11:51;31.60;28.50
80258;DHT22;69565;37.974;23.708;2023-07-28T07:14:17;31.60;28.60
80258;DHT22;69565;37.974;23.708;2023-07-28T07:16:43;31.60;28.80
80258;DHT22;69565;37.974;23.708;2023-07-28T07:19:08;31.40;28.90
80258;DHT22;69565;37.974;23.708;2023-07-28T07:21:34;31.20;29.10
80258;DHT22;69565;37.974;23.708;2023-07-28T07:24:00;31.00;29.40
80258;DHT22;69565;37.974;23.708;2023-07-28T07:26:28;30.80;29.60
80258;DHT22;69565;37.974;23.708;2023-07-28T07:28:53;30.70;29.60
80258;DHT22;69565;37.974;23.708;2023-07-28T07:31:19;30.70;29.70
80258;DHT22;69565;37.974;23.708;2023-07-28T07:33:45;30.80;29.50
80258;DHT22;69565;37.974;23.708;2023-07-28T07:36:18;30.80;29.70
80258;DHT22;69565;37.974;23.708;2023-07-28T07:38:44;30.70;29.80
80258;DHT22;69565;37.974;23.708;2023-07-28T07:41:14;30.80;29.70
80258;DHT22;69565;37.974;23.708;2023-07-28T07:43:47;30.80;29.70
80258;DHT22;69565;37.974;23.708;2023-07-28T07:46:14;30.70;29.90
80258;DHT22;69565;37.974;23.708;2023-07-28T07:48:40;30.60;30.00
80258;DHT22;69565;37.974;23.708;2023-07-28T07:51:07;30.70;30.00
80258;DHT22;69565;37.974;23.708;2023-07-28T07:53:34;30.60;30.00
80258;DHT22;69565;37.974;23.708;2023-07-28T07:55:59;30.60;30.00
80258;DHT22;69565;37.974;23.708;2023-07-28T07:58:25;30.60;30.00
80258;DHT22;69565;37.974;23.708;2023-07-28T08:00:51;30.50;30.00
80258;DHT22;69565;37.974;23.708;2023-07-28T08:03:16;30.50;30.10
80258;DHT22;69565;37.974;23.708;2023-07-28T08:05:42;30.50;30.00
80258;DHT22;69565;37.974;23.708;2023-07-28T08:08:08;30.50;30.00
80258;DHT22;69565;37.974;23.708;2023-07-28T08:10:35;30.50;30.00
80258;DHT22;69565;37.974;23.708;2023-07-28T08:13:00;30.50;30.00
80258;DHT22;69565;37.974;23.708;2023-07-28T08:15:29;30.40;30.00
80258;DHT22;69565;37.974;23.708;2023-07-28T08:17:55;30.50;30.20
80258;DHT22;69565;37.974;23.708;2023-07-28T08:20:21;30.50;30.10
80258;DHT22;69565;37.974;23.708;2023-07-28T08:22:46;30.40;30.10
80258;DHT22;69565;37.974;23.708;2023-07-28T08:25:12;30.40;30.20
80258;DHT22;69565;37.974;23.708;2023-07-28T08:27:38;30.40;30.40
80258;DHT22;69565;37.974;23.708;2023-07-28T08:30:04;30.40;30.30
80258;DHT22;69565;37.974;23.708;2023-07-28T08:32:30;30.40;30.20
80258;DHT22;69565;37.974;23.708;2023-07-28T08:34:56;30.40;30.00
80258;DHT22;69565;37.974;23.708;2023-07-28T08:37:22;30.40;30.20
80258;DHT22;69565;37.974;23.708;2023-07-28T08:39:48;30.40;30.40
80258;DHT22;69565;37.974;23.708;2023-07-28T08:42:13;30.30;30.30
80258;DHT22;69565;37.974;23.708;2023-07-28T08:44:39;30.30;30.20
80258;DHT22;69565;37.974;23.708;2023-07-28T08:47:05;30.30;30.40
80258;DHT22;69565;37.974;23.708;2023-07-28T08:49:31;30.20;30.20
80258;DHT22;69565;37.974;23.708;2023-07-28T08:52:00;30.30;30.30
80258;DHT22;69565;37.974;23.708;2023-07-28T08:54:26;30.20;31.00
80258;DHT22;69565;37.974;23.708;2023-07-28T08:56:52;30.20;30.30
80258;DHT22;69565;37.974;23.708;2023-07-28T08:59:25;30.20;30.40
80258;DHT22;69565;37.974;23.708;2023-07-28T09:01:56;30.10;30.30
80258;DHT22;69565;37.974;23.708;2023-07-28T09:04:24;30.20;30.40
80258;DHT22;69565;37.974;23.708;2023-07-28T09:06:50;30.20;30.60
80258;DHT22;69565;37.974;23.708;2023-07-28T09:09:20;30.10;30.40
80258;DHT22;69565;37.974;23.708;2023-07-28T09:11:52;30.20;30.50
80258;DHT22;69565;37.974;23.708;2023-07-28T09:14:19;30.20;30.70
80258;DHT22;69565;37.974;23.708;2023-07-28T09:16:46;30.10;30.50
80258;DHT22;69565;37.974;23.708;2023-07-28T09:19:13;30.20;30.60
80258;DHT22;69565;37.974;23.708;2023-07-28T09:21:40;30.10;30.50
80258;DHT22;69565;37.974;23.708;2023-07-28T09:24:09;30.10;30.50
80258;DHT22;69565;37.974;23.708;2023-07-28T09:26:44;30.10;30.60
80258;DHT22;69565;37.974;23.708;2023-07-28T09:29:19;30.10;30.20
80258;DHT22;69565;37.974;23.708;2023-07-28T09:31:46;30.10;30.60
80258;DHT22;69565;37.974;23.708;2023-07-28T09:34:13;30.10;30.60
80258;DHT22;69565;37.974;23.708;2023-07-28T09:36:49;30.10;30.70
80258;DHT22;69565;37.974;23.708;2023-07-28T09:39:14;30.10;30.80
80258;DHT22;69565;37.974;23.708;2023-07-28T09:41:40;30.10;30.90
80258;DHT22;69565;37.974;23.708;2023-07-28T09:44:06;30.00;30.80
80258;DHT22;69565;37.974;23.708;2023-07-28T09:46:35;30.00;30.80
80258;DHT22;69565;37.974;23.708;2023-07-28T09:49:10;30.00;30.60
80258;DHT22;69565;37.974;23.708;2023-07-28T09:51:39;30.00;30.60
80258;DHT22;69565;37.974;23.708;2023-07-28T09:54:12;30.10;30.70
80258;DHT22;69565;37.974;23.708;2023-07-28T09:56:38;30.00;30.40
80258;DHT22;69565;37.974;23.708;2023-07-28T09:59:11;30.00;30.80
80258;DHT22;69565;37.974;23.708;2023-07-28T10:01:39;29.90;31.10
80258;DHT22;69565;37.974;23.708;2023-07-28T10:04:05;29.90;31.00
80258;DHT22;69565;37.974;23.708;2023-07-28T10:06:32;30.00;30.90
80258;DHT22;69565;37.974;23.708;2023-07-28T10:08:59;30.00;30.90
80258;DHT22;69565;37.974;23.708;2023-07-28T10:11:25;30.00;31.10
80258;DHT22;69565;37.974;23.708;2023-07-28T10:13:54;30.00;31.40
80258;DHT22;69565;37.974;23.708;2023-07-28T10:16:38;29.90;31.40
80258;DHT22;69565;37.974;23.708;2023-07-28T10:19:04;30.00;31.40
80258;DHT22;69565;37.974;23.708;2023-07-28T10:21:31;30.00;31.70
80258;DHT22;69565;37.974;23.708;2023-07-28T10:23:58;29.90;31.60
80258;DHT22;69565;37.974;23.708;2023-07-28T10:26:37;30.00;31.70
80258;DHT22;69565;37.974;23.708;2023-07-28T10:29:14;30.00;31.70
80258;DHT22;69565;37.974;23.708;2023-07-28T10:31:54;29.90;31.70
80258;DHT22;69565;37.974;23.708;2023-07-28T10:34:21;29.90;31.60
80258;DHT22;69565;37.974;23.708;2023-07-28T10:36:56;29.80;31.60
80258;DHT22;69565;37.974;23.708;2023-07-28T10:39:23;29.80;31.70
80258;DHT22;69565;37.974;23.708;2023-07-28T10:42:12;29.90;31.90
80258;DHT22;69565;37.974;23.708;2023-07-28T10:44:38;29.80;31.80
80258;DHT22;69565;37.974;23.708;2023-07-28T10:47:07;29.80;32.10
80258;DHT22;69565;37.974;23.708;2023-07-28T10:49:34;29.80;32.20
80258;DHT22;69565;37.974;23.708;2023-07-28T10:52:00;29.80;32.20
80258;DHT22;69565;37.974;23.708;2023-07-28T10:54:26;29.80;32.20
80258;DHT22;69565;37.974;23.708;2023-07-28T10:56:52;29.80;32.00
80258;DHT22;69565;37.974;23.708;2023-07-28T10:59:18;29.80;32.30
80258;DHT22;69565;37.974;23.708;2023-07-28T11:01:43;29.80;32.30
80258;DHT22;69565;37.974;23.708;2023-07-28T11:04:17;29.90;32.50
80258;DHT22;69565;37.974;23.708;2023-07-28T11:06:48;29.90;32.30
80258;DHT22;69565;37.974;23.708;2023-07-28T11:09:16;29.90;32.80
80258;DHT22;69565;37.974;23.708;2023-07-28T11:11:43;29.90;32.90
80258;DHT22;69565;37.974;23.708;2023-07-28T11:14:09;29.80;32.60
80258;DHT22;69565;37.974;23.708;2023-07-28T11:16:36;29.90;32.90
80258;DHT22;69565;37.974;23.708;2023-07-28T11:19:07;29.90;32.90
80258;DHT22;69565;37.974;23.708;2023-07-28T11:21:39;29.90;33.00
80258;DHT22;69565;37.974;23.708;2023-07-28T11:24:10;29.80;32.70
80258;DHT22;69565;37.974;23.708;2023-07-28T11:26:37;29.90;32.90
80258;DHT22;69565;37.974;23.708;2023-07-28T11:29:04;29.80;32.50
80258;DHT22;69565;37.974;23.708;2023-07-28T11:31:30;29.80;33.00
80258;DHT22;69565;37.974;23.708;2023-07-28T11:33:57;29.80;33.30
80258;DHT22;69565;37.974;23.708;2023-07-28T11:36:27;29.80;34.10
80258;DHT22;69565;37.974;23.708;2023-07-28T11:38:53;29.80;33.20
80258;DHT22;69565;37.974;23.708;2023-07-28T11:41:20;29.70;33.00
80258;DHT22;69565;37.974;23.708;2023-07-28T11:43:51;29.80;33.10
80258;DHT22;69565;37.974;23.708;2023-07-28T11:46:36;29.80;33.20
80258;DHT22;69565;37.974;23.708;2023-07-28T11:49:09;29.70;32.60
80258;DHT22;69565;37.974;23.708;2023-07-28T11:51:42;29.80;33.00
80258;DHT22;69565;37.974;23.708;2023-07-28T11:54:11;29.80;33.10
80258;DHT22;69565;37.974;23.708;2023-07-28T11:56:40;29.70;33.10
80258;DHT22;69565;37.974;23.708;2023-07-28T11:59:05;29.70;33.00
80258;DHT22;69565;37.974;23.708;2023-07-28T12:01:31;29.70;33.30
80258;DHT22;69565;37.974;23.708;2023-07-28T12:03:57;29.80;33.10
80258;DHT22;69565;37.974;23.708;2023-07-28T12:06:26;29.80;33.20
80258;DHT22;69565;37.974;23.708;2023-07-28T12:08:51;29.70;33.20
80258;DHT22;69565;37.974;23.708;2023-07-28T12:11:20;29.80;33.20
80258;DHT22;69565;37.974;23.708;2023-07-28T12:13:52;29.70;33.20
80258;DHT22;69565;37.974;23.708;2023-07-28T12:16:40;29.60;33.10
80258;DHT22;69565;37.974;23.708;2023-07-28T12:19:09;29.70;33.20
80258;DHT22;69565;37.974;23.708;2023-07-28T12:21:35;29.70;33.50
80258;DHT22;69565;37.974;23.708;2023-07-28T12:24:01;29.60;33.20
80258;DHT22;69565;37.974;23.708;2023-07-28T12:26:26;29.70;33.40
80258;DHT22;69565;37.974;23.708;2023-07-28T12:28:52;29.60;33.30
80258;DHT22;69565;37.974;23.708;2023-07-28T12:31:18;29.60;33.50
80258;DHT22;69565;37.974;23.708;2023-07-28T12:33:43;29.60;33.70
80258;DHT22;69565;37.974;23.708;2023-07-28T12:36:09;29.60;33.50
80258;DHT22;69565;37.974;23.708;2023-07-28T12:38:35;29.60;33.60
80258;DHT22;69565;37.974;23.708;2023-07-28T12:41:00;29.60;33.30
80258;DHT22;69565;37.974;23.708;2023-07-28T12:43:26;29.60;33.60
80258;DHT22;69565;37.974;23.708;2023-07-28T12:45:54;29.70;34.00
80258;DHT22;69565;37.974;23.708;2023-07-28T12:48:20;29.60;33.60
80258;DHT22;69565;37.974;23.708;2023-07-28T12:50:45;29.60;33.70
80258;DHT22;69565;37.974;23.708;2023-07-28T12:53:11;29.60;33.30
80258;DHT22;69565;37.974;23.708;2023-07-28T12:55:37;29.60;33.70
80258;DHT22;69565;37.974;23.708;2023-07-28T12:58:03;29.60;33.60
80258;DHT22;69565;37.974;23.708;2023-07-28T13:00:29;29.50;33.60
80258;DHT22;69565;37.974;23.708;2023-07-28T13:02:54;29.60;33.70
80258;DHT22;69565;37.974;23.708;2023-07-28T13:05:20;29.70;33.70
80258;DHT22;69565;37.974;23.708;2023-07-28T13:07:46;29.70;33.50
80258;DHT22;69565;37.974;23.708;2023-07-28T13:10:11;29.80;33.60
80258;DHT22;69565;37.974;23.708;2023-07-28T13:12:38;29.90;33.60
80258;DHT22;69565;37.974;23.708;2023-07-28T13:15:04;29.90;33.80
80258;DHT22;69565;37.974;23.708;2023-07-28T13:17:31;30.00;34.20
80258;DHT22;69565;37.974;23.708;2023-07-28T13:19:56;30.00;34.30
80258;DHT22;69565;37.974;23.708;2023-07-28T13:22:23;30.00;34.60
80258;DHT22;69565;37.974;23.708;2023-07-28T13:24:49;30.00;34.60
80258;DHT22;69565;37.974;23.708;2023-07-28T13:27:14;30.10;34.90
80258;DHT22;69565;37.974;23.708;2023-07-28T13:29:40;30.10;35.00
80258;DHT22;69565;37.974;23.708;2023-07-28T13:32:16;30.10;35.30
80258;DHT22;69565;37.974;23.708;2023-07-28T13:34:42;30.10;35.50
80258;DHT22;69565;37.974;23.708;2023-07-28T13:37:08;30.10;35.70
80258;DHT22;69565;37.974;23.708;2023-07-28T13:39:34;30.10;35.80
80258;DHT22;69565;37.974;23.708;2023-07-28T13:42:00;30.10;36.10
80258;DHT22;69565;37.974;23.708;2023-07-28T13:44:26;30.20;36.30
80258;DHT22;69565;37.974;23.708;2023-07-28T13:46:51;30.10;36.20
80258;DHT22;69565;37.974;23.708;2023-07-28T13:49:17;30.20;36.50
80258;DHT22;69565;37.974;23.708;2023-07-28T13:51:43;30.20;36.50
80258;DHT22;69565;37.974;23.708;2023-07-28T13:54:10;30.20;36.60
80258;DHT22;69565;37.974;23.708;2023-07-28T13:56:36;30.20;36.50
80258;DHT22;69565;37.974;23.708;2023-07-28T13:59:02;30.10;36.60
80258;DHT22;69565;37.974;23.708;2023-07-28T14:01:28;30.20;36.80
80258;DHT22;69565;37.974;23.708;2023-07-28T14:03:53;30.10;36.80
80258;DHT22;69565;37.974;23.708;2023-07-28T14:06:19;30.10;37.00
80258;DHT22;69565;37.974;23.708;2023-07-28T14:08:45;30.10;37.10
80258;DHT22;69565;37.974;23.708;2023-07-28T14:11:11;30.10;37.20
80258;DHT22;69565;37.974;23.708;2023-07-28T14:13:36;30.10;37.10
80258;DHT22;69565;37.974;23.708;2023-07-28T14:16:02;30.10;37.10
80258;DHT22;69565;37.974;23.708;2023-07-28T14:18:28;30.10;37.20
80258;DHT22;69565;37.974;23.708;2023-07-28T14:20:53;30.10;37.20
80258;DHT22;69565;37.974;23.708;2023-07-28T14:23:26;30.10;37.20
80258;DHT22;69565;37.974;23.708;2023-07-28T14:25:53;30.10;37.20
80258;DHT22;69565;37.974;23.708;2023-07-28T14:28:21;30.10;37.30
80258;DHT22;69565;37.974;23.708;2023-07-28T14:30:48;30.10;37.40
80258;DHT22;69565;37.974;23.708;2023-07-28T14:33:14;30.10;37.40
80258;DHT22;69565;37.974;23.708;2023-07-28T14:35:41;30.10;37.40
80258;DHT22;69565;37.974;23.708;2023-07-28T14:38:07;30.10;37.30
80258;DHT22;69565;37.974;23.708;2023-07-28T14:40:32;30.10;37.30
80258;DHT22;69565;37.974;23.708;2023-07-28T14:42:58;30.10;37.30
80258;DHT22;69565;37.974;23.708;2023-07-28T14:45:24;30.10;37.40
80258;DHT22;69565;37.974;23.708;2023-07-28T14:47:49;30.00;37.40
80258;DHT22;69565;37.974;23.708;2023-07-28T14:50:15;30.00;37.40
80258;DHT22;69565;37.974;23.708;2023-07-28T14:52:41;30.10;37.30
80258;DHT22;69565;37.974;23.708;2023-07-28T14:55:07;30.10;37.30
80258;DHT22;69565;37.974;23.708;2023-07-28T14:57:32;30.10;37.30
80258;DHT22;69565;37.974;23.708;2023-07-28T14:59:58;30.10;37.20
80258;DHT22;69565;37.974;23.708;2023-07-28T15:02:24;30.00;37.10
80258;DHT22;69565;37.974;23.708;2023-07-28T15:04:49;30.00;37.20
80258;DHT22;69565;37.974;23.708;2023-07-28T15:07:16;30.10;37.10
80258;DHT22;69565;37.974;23.708;2023-07-28T15:09:44;30.10;37.20
80258;DHT22;69565;37.974;23.708;2023-07-28T15:12:10;30.10;37.30
80258;DHT22;69565;37.974;23.708;2023-07-28T15:14:36;30.10;37.40
80258;DHT22;69565;37.974;23.708;2023-07-28T15:17:01;30.00;37.30